sensor_id;sensor_type;location;lat;lon;timestamp;P1;durP1;ratioP1;P2;durP2;ratioP2
62679;SDS011;68213;40.528;44.712;2023-06-10T00:00:31;6.75;;;3.22;;
62679;SDS011;68213;40.528;44.712;2023-06-10T00:01:31;5.90;;;3.08;;
62679;SDS011;68213;40.528;44.712;2023-06-10T00:02:34;9.30;;;2.90;;
62679;SDS011;68213;40.528;44.712;2023-06-10T00:03:34;6.25;;;3.40;;
62679;SDS011;68213;40.528;44.712;2023-06-10T00:04:36;6.63;;;3.30;;
62679;SDS011;68213;40.528;44.712;2023-06-10T00:05:37;6.60;;;3.17;;
62679;SDS011;68213;40.528;44.712;2023-06-10T00:06:40;7.65;;;3.25;;
62679;SDS011;68213;40.528;44.712;2023-06-10T00:07:40;9.68;;;3.30;;
62679;SDS011;68213;40.528;44.712;2023-06-10T00:08:41;5.82;;;3.30;;
62679;SDS011;68213;40.528;44.712;2023-06-10T00:09:44;11.02;;;3.00;;
62679;SDS011;68213;40.528;44.712;2023-06-10T00:10:45;5.00;;;3.03;;
62679;SDS011;68213;40.528;44.712;2023-06-10T00:11:45;6.25;;;3.30;;
62679;SDS011;68213;40.528;44.712;2023-06-10T00:12:46;5.72;;;3.08;;
62679;SDS011;68213;40.528;44.712;2023-06-10T00:13:47;7.70;;;3.17;;
62679;SDS011;68213;40.528;44.712;2023-06-10T00:14:49;4.65;;;2.78;;
62679;SDS011;68213;40.528;44.712;2023-06-10T00:15:51;5.22;;;2.67;;
62679;SDS011;68213;40.528;44.712;2023-06-10T00:16:52;7.35;;;2.80;;
62679;SDS011;68213;40.528;44.712;2023-06-10T00:17:53;7.72;;;3.03;;
62679;SDS011;68213;40.528;44.712;2023-06-10T00:18:55;5.95;;;3.13;;
62679;SDS011;68213;40.528;44.712;2023-06-10T00:19:56;7.35;;;2.80;;
62679;SDS011;68213;40.528;44.712;2023-06-10T00:20:58;9.05;;;2.80;;
62679;SDS011;68213;40.528;44.712;2023-06-10T00:22:04;6.30;;;2.80;;
62679;SDS011;68213;40.528;44.712;2023-06-10T00:23:07;7.18;;;2.88;;
62679;SDS011;68213;40.528;44.712;2023-06-10T00:24:10;4.22;;;2.67;;
62679;SDS011;68213;40.528;44.712;2023-06-10T00:25:12;4.68;;;2.78;;
62679;SDS011;68213;40.528;44.712;2023-06-10T00:26:12;4.97;;;2.60;;
62679;SDS011;68213;40.528;44.712;2023-06-10T00:27:13;4.53;;;2.60;;
62679;SDS011;68213;40.528;44.712;2023-06-10T00:28:14;5.85;;;3.60;;
62679;SDS011;68213;40.528;44.712;2023-06-10T00:29:14;3.40;;;2.50;;
62679;SDS011;68213;40.528;44.712;2023-06-10T00:30:15;7.32;;;3.00;;
62679;SDS011;68213;40.528;44.712;2023-06-10T00:31:16;4.35;;;2.60;;
62679;SDS011;68213;40.528;44.712;2023-06-10T00:32:20;5.43;;;2.47;;
62679;SDS011;68213;40.528;44.712;2023-06-10T00:33:20;9.40;;;3.05;;
62679;SDS011;68213;40.528;44.712;2023-06-10T00:34:21;13.98;;;2.67;;
62679;SDS011;68213;40.528;44.712;2023-06-10T00:35:22;5.95;;;2.63;;
62679;SDS011;68213;40.528;44.712;2023-06-10T00:36:23;8.00;;;2.20;;
62679;SDS011;68213;40.528;44.712;2023-06-10T00:37:23;6.10;;;2.75;;
62679;SDS011;68213;40.528;44.712;2023-06-10T00:38:24;3.67;;;2.50;;
62679;SDS011;68213;40.528;44.712;2023-06-10T00:39:25;4.90;;;2.25;;
62679;SDS011;68213;40.528;44.712;2023-06-10T00:40:25;3.67;;;2.38;;
62679;SDS011;68213;40.528;44.712;2023-06-10T00:41:26;4.60;;;2.97;;
62679;SDS011;68213;40.528;44.712;2023-06-10T00:42:27;5.40;;;2.50;;
62679;SDS011;68213;40.528;44.712;2023-06-10T00:43:27;7.38;;;2.47;;
62679;SDS011;68213;40.528;44.712;2023-06-10T00:44:28;8.02;;;2.83;;
62679;SDS011;68213;40.528;44.712;2023-06-10T00:45:29;16.45;;;2.70;;
62679;SDS011;68213;40.528;44.712;2023-06-10T00:46:29;6.75;;;2.53;;
62679;SDS011;68213;40.528;44.712;2023-06-10T00:47:32;6.53;;;2.22;;
62679;SDS011;68213;40.528;44.712;2023-06-10T00:48:33;4.85;;;2.58;;
62679;SDS011;68213;40.528;44.712;2023-06-10T00:49:34;4.18;;;2.38;;
62679;SDS011;68213;40.528;44.712;2023-06-10T00:50:35;3.70;;;2.70;;
62679;SDS011;68213;40.528;44.712;2023-06-10T00:51:39;3.92;;;2.20;;
62679;SDS011;68213;40.528;44.712;2023-06-10T00:52:41;3.17;;;2.42;;
62679;SDS011;68213;40.528;44.712;2023-06-10T00:53:45;6.13;;;2.40;;
62679;SDS011;68213;40.528;44.712;2023-06-10T00:54:45;3.45;;;2.30;;
62679;SDS011;68213;40.528;44.712;2023-06-10T00:55:46;9.23;;;2.78;;
62679;SDS011;68213;40.528;44.712;2023-06-10T00:56:48;4.90;;;2.53;;
62679;SDS011;68213;40.528;44.712;2023-06-10T00:57:49;6.38;;;2.50;;
62679;SDS011;68213;40.528;44.712;2023-06-10T00:58:51;5.03;;;2.40;;
62679;SDS011;68213;40.528;44.712;2023-06-10T00:59:55;5.07;;;2.40;;
62679;SDS011;68213;40.528;44.712;2023-06-10T01:00:55;8.00;;;2.70;;
62679;SDS011;68213;40.528;44.712;2023-06-10T01:01:58;4.78;;;2.55;;
62679;SDS011;68213;40.528;44.712;2023-06-10T01:02:59;9.27;;;3.15;;
62679;SDS011;68213;40.528;44.712;2023-06-10T01:03:59;6.57;;;2.80;;
62679;SDS011;68213;40.528;44.712;2023-06-10T01:05:00;5.40;;;2.50;;
62679;SDS011;68213;40.528;44.712;2023-06-10T01:07:24;6.60;;;2.80;;
62679;SDS011;68213;40.528;44.712;2023-06-10T01:08:50;5.03;;;2.70;;
62679;SDS011;68213;40.528;44.712;2023-06-10T01:11:04;5.65;;;2.60;;
62679;SDS011;68213;40.528;44.712;2023-06-10T01:12:19;9.27;;;3.00;;
62679;SDS011;68213;40.528;44.712;2023-06-10T01:13:27;7.38;;;2.78;;
62679;SDS011;68213;40.528;44.712;2023-06-10T01:14:30;4.50;;;2.90;;
62679;SDS011;68213;40.528;44.712;2023-06-10T01:15:31;6.15;;;2.72;;
62679;SDS011;68213;40.528;44.712;2023-06-10T01:16:33;5.45;;;2.75;;
62679;SDS011;68213;40.528;44.712;2023-06-10T01:17:51;9.50;;;2.90;;
62679;SDS011;68213;40.528;44.712;2023-06-10T01:19:04;6.05;;;2.78;;
62679;SDS011;68213;40.528;44.712;2023-06-10T01:20:05;4.95;;;3.03;;
62679;SDS011;68213;40.528;44.712;2023-06-10T01:21:13;4.07;;;2.78;;
62679;SDS011;68213;40.528;44.712;2023-06-10T01:22:18;4.72;;;2.67;;
62679;SDS011;68213;40.528;44.712;2023-06-10T01:23:21;9.98;;;3.22;;
62679;SDS011;68213;40.528;44.712;2023-06-10T01:24:24;8.73;;;3.10;;
62679;SDS011;68213;40.528;44.712;2023-06-10T01:25:25;6.18;;;3.63;;
62679;SDS011;68213;40.528;44.712;2023-06-10T01:26:33;4.90;;;2.80;;
62679;SDS011;68213;40.528;44.712;2023-06-10T01:27:35;4.15;;;2.65;;
62679;SDS011;68213;40.528;44.712;2023-06-10T01:30:04;7.25;;;3.13;;
62679;SDS011;68213;40.528;44.712;2023-06-10T01:32:34;7.07;;;2.92;;
62679;SDS011;68213;40.528;44.712;2023-06-10T01:33:45;6.93;;;3.15;;
62679;SDS011;68213;40.528;44.712;2023-06-10T01:34:50;3.65;;;2.95;;
62679;SDS011;68213;40.528;44.712;2023-06-10T01:35:56;10.02;;;3.10;;
62679;SDS011;68213;40.528;44.712;2023-06-10T01:38:03;6.63;;;2.83;;
62679;SDS011;68213;40.528;44.712;2023-06-10T01:39:06;6.32;;;3.10;;
62679;SDS011;68213;40.528;44.712;2023-06-10T01:40:10;5.30;;;3.25;;
62679;SDS011;68213;40.528;44.712;2023-06-10T01:41:12;8.55;;;3.35;;
62679;SDS011;68213;40.528;44.712;2023-06-10T01:42:14;4.63;;;2.95;;
62679;SDS011;68213;40.528;44.712;2023-06-10T01:43:16;9.23;;;3.47;;
62679;SDS011;68213;40.528;44.712;2023-06-10T01:44:20;7.07;;;3.40;;
62679;SDS011;68213;40.528;44.712;2023-06-10T01:45:21;8.00;;;3.13;;
62679;SDS011;68213;40.528;44.712;2023-06-10T01:46:22;5.43;;;3.15;;
62679;SDS011;68213;40.528;44.712;2023-06-10T01:47:23;5.53;;;4.25;;
62679;SDS011;68213;40.528;44.712;2023-06-10T01:48:23;10.88;;;3.60;;
62679;SDS011;68213;40.528;44.712;2023-06-10T01:49:24;6.20;;;3.40;;
62679;SDS011;68213;40.528;44.712;2023-06-10T01:50:26;5.32;;;3.05;;
62679;SDS011;68213;40.528;44.712;2023-06-10T01:51:27;7.85;;;3.85;;
62679;SDS011;68213;40.528;44.712;2023-06-10T01:52:27;6.38;;;3.78;;
62679;SDS011;68213;40.528;44.712;2023-06-10T01:53:28;7.38;;;3.67;;
62679;SDS011;68213;40.528;44.712;2023-06-10T01:54:29;8.18;;;4.05;;
62679;SDS011;68213;40.528;44.712;2023-06-10T01:55:29;7.70;;;3.45;;
62679;SDS011;68213;40.528;44.712;2023-06-10T01:56:30;4.32;;;3.72;;
62679;SDS011;68213;40.528;44.712;2023-06-10T01:57:33;6.18;;;3.67;;
62679;SDS011;68213;40.528;44.712;2023-06-10T01:58:33;4.95;;;3.63;;
62679;SDS011;68213;40.528;44.712;2023-06-10T01:59:34;7.18;;;3.85;;
62679;SDS011;68213;40.528;44.712;2023-06-10T02:00:36;6.10;;;3.80;;
62679;SDS011;68213;40.528;44.712;2023-06-10T02:01:37;5.72;;;3.95;;
62679;SDS011;68213;40.528;44.712;2023-06-10T02:02:38;10.57;;;3.83;;
62679;SDS011;68213;40.528;44.712;2023-06-10T02:03:41;7.20;;;3.80;;
62679;SDS011;68213;40.528;44.712;2023-06-10T02:04:42;6.18;;;3.40;;
62679;SDS011;68213;40.528;44.712;2023-06-10T02:05:43;8.43;;;3.97;;
62679;SDS011;68213;40.528;44.712;2023-06-10T02:06:44;8.07;;;4.18;;
62679;SDS011;68213;40.528;44.712;2023-06-10T02:07:45;7.78;;;4.30;;
62679;SDS011;68213;40.528;44.712;2023-06-10T02:08:46;5.22;;;3.63;;
62679;SDS011;68213;40.528;44.712;2023-06-10T02:09:46;5.53;;;3.70;;
62679;SDS011;68213;40.528;44.712;2023-06-10T02:10:47;6.22;;;3.80;;
62679;SDS011;68213;40.528;44.712;2023-06-10T02:11:47;5.97;;;4.13;;
62679;SDS011;68213;40.528;44.712;2023-06-10T02:12:49;9.52;;;4.10;;
62679;SDS011;68213;40.528;44.712;2023-06-10T02:13:50;7.13;;;4.30;;
62679;SDS011;68213;40.528;44.712;2023-06-10T02:14:51;9.57;;;4.50;;
62679;SDS011;68213;40.528;44.712;2023-06-10T02:15:51;6.13;;;4.18;;
62679;SDS011;68213;40.528;44.712;2023-06-10T02:16:54;6.28;;;4.22;;
62679;SDS011;68213;40.528;44.712;2023-06-10T02:17:56;7.18;;;4.13;;
62679;SDS011;68213;40.528;44.712;2023-06-10T02:18:58;10.75;;;4.55;;
62679;SDS011;68213;40.528;44.712;2023-06-10T02:19:58;8.45;;;4.32;;
62679;SDS011;68213;40.528;44.712;2023-06-10T02:20:59;8.38;;;4.38;;
62679;SDS011;68213;40.528;44.712;2023-06-10T02:22:02;11.05;;;4.50;;
62679;SDS011;68213;40.528;44.712;2023-06-10T02:23:03;6.60;;;4.13;;
62679;SDS011;68213;40.528;44.712;2023-06-10T02:24:04;5.93;;;4.00;;
62679;SDS011;68213;40.528;44.712;2023-06-10T02:25:06;8.95;;;3.83;;
62679;SDS011;68213;40.528;44.712;2023-06-10T02:26:07;8.45;;;4.40;;
62679;SDS011;68213;40.528;44.712;2023-06-10T02:27:08;8.13;;;4.70;;
62679;SDS011;68213;40.528;44.712;2023-06-10T02:28:09;9.93;;;4.35;;
62679;SDS011;68213;40.528;44.712;2023-06-10T02:29:09;7.32;;;4.60;;
62679;SDS011;68213;40.528;44.712;2023-06-10T02:30:11;8.68;;;4.57;;
62679;SDS011;68213;40.528;44.712;2023-06-10T02:31:15;6.95;;;4.43;;
62679;SDS011;68213;40.528;44.712;2023-06-10T02:32:18;8.57;;;4.30;;
62679;SDS011;68213;40.528;44.712;2023-06-10T02:33:18;6.45;;;4.35;;
62679;SDS011;68213;40.528;44.712;2023-06-10T02:34:20;9.10;;;5.25;;
62679;SDS011;68213;40.528;44.712;2023-06-10T02:35:20;9.25;;;4.55;;
62679;SDS011;68213;40.528;44.712;2023-06-10T02:36:24;8.50;;;4.63;;
62679;SDS011;68213;40.528;44.712;2023-06-10T02:37:27;8.32;;;4.40;;
62679;SDS011;68213;40.528;44.712;2023-06-10T02:38:28;6.13;;;4.38;;
62679;SDS011;68213;40.528;44.712;2023-06-10T02:39:31;7.20;;;4.68;;
62679;SDS011;68213;40.528;44.712;2023-06-10T02:40:32;10.57;;;4.75;;
62679;SDS011;68213;40.528;44.712;2023-06-10T02:41:32;9.07;;;4.40;;
62679;SDS011;68213;40.528;44.712;2023-06-10T02:42:33;10.20;;;4.63;;
62679;SDS011;68213;40.528;44.712;2023-06-10T02:43:33;9.50;;;4.55;;
62679;SDS011;68213;40.528;44.712;2023-06-10T02:44:34;8.07;;;4.32;;
62679;SDS011;68213;40.528;44.712;2023-06-10T02:45:35;7.18;;;4.40;;
62679;SDS011;68213;40.528;44.712;2023-06-10T02:46:35;7.63;;;4.38;;
62679;SDS011;68213;40.528;44.712;2023-06-10T02:47:37;8.77;;;4.22;;
62679;SDS011;68213;40.528;44.712;2023-06-10T02:48:40;11.15;;;4.70;;
62679;SDS011;68213;40.528;44.712;2023-06-10T02:49:42;8.07;;;4.63;;
62679;SDS011;68213;40.528;44.712;2023-06-10T02:50:43;8.02;;;4.70;;
62679;SDS011;68213;40.528;44.712;2023-06-10T02:51:44;10.38;;;5.65;;
62679;SDS011;68213;40.528;44.712;2023-06-10T02:52:44;8.43;;;4.75;;
62679;SDS011;68213;40.528;44.712;2023-06-10T02:53:46;8.98;;;4.50;;
62679;SDS011;68213;40.528;44.712;2023-06-10T02:54:46;5.78;;;4.65;;
62679;SDS011;68213;40.528;44.712;2023-06-10T02:55:47;9.18;;;5.47;;
62679;SDS011;68213;40.528;44.712;2023-06-10T02:56:48;6.88;;;4.90;;
62679;SDS011;68213;40.528;44.712;2023-06-10T02:57:48;8.23;;;4.95;;
62679;SDS011;68213;40.528;44.712;2023-06-10T02:58:49;9.10;;;4.85;;
62679;SDS011;68213;40.528;44.712;2023-06-10T02:59:51;6.68;;;4.70;;
62679;SDS011;68213;40.528;44.712;2023-06-10T03:00:53;8.38;;;4.90;;
62679;SDS011;68213;40.528;44.712;2023-06-10T03:01:58;8.82;;;5.18;;
62679;SDS011;68213;40.528;44.712;2023-06-10T03:03:01;9.40;;;5.15;;
62679;SDS011;68213;40.528;44.712;2023-06-10T03:04:04;6.72;;;5.22;;
62679;SDS011;68213;40.528;44.712;2023-06-10T03:05:05;7.40;;;5.00;;
62679;SDS011;68213;40.528;44.712;2023-06-10T03:06:10;8.82;;;5.18;;
62679;SDS011;68213;40.528;44.712;2023-06-10T03:07:11;8.10;;;5.40;;
62679;SDS011;68213;40.528;44.712;2023-06-10T03:08:12;12.57;;;5.43;;
62679;SDS011;68213;40.528;44.712;2023-06-10T03:09:13;9.38;;;4.93;;
62679;SDS011;68213;40.528;44.712;2023-06-10T03:10:14;8.00;;;4.40;;
62679;SDS011;68213;40.528;44.712;2023-06-10T03:11:15;9.20;;;5.05;;
62679;SDS011;68213;40.528;44.712;2023-06-10T03:12:16;10.05;;;4.88;;
62679;SDS011;68213;40.528;44.712;2023-06-10T03:13:16;9.15;;;4.95;;
62679;SDS011;68213;40.528;44.712;2023-06-10T03:14:17;6.82;;;4.97;;
62679;SDS011;68213;40.528;44.712;2023-06-10T03:15:18;6.97;;;4.75;;
62679;SDS011;68213;40.528;44.712;2023-06-10T03:16:20;7.80;;;5.00;;
62679;SDS011;68213;40.528;44.712;2023-06-10T03:17:21;8.35;;;4.85;;
62679;SDS011;68213;40.528;44.712;2023-06-10T03:18:25;7.80;;;4.90;;
62679;SDS011;68213;40.528;44.712;2023-06-10T03:19:27;8.73;;;5.03;;
62679;SDS011;68213;40.528;44.712;2023-06-10T03:20:27;7.30;;;4.85;;
62679;SDS011;68213;40.528;44.712;2023-06-10T03:21:28;7.88;;;4.90;;
62679;SDS011;68213;40.528;44.712;2023-06-10T03:22:30;6.25;;;5.03;;
62679;SDS011;68213;40.528;44.712;2023-06-10T03:23:30;8.35;;;4.93;;
62679;SDS011;68213;40.528;44.712;2023-06-10T03:24:32;5.97;;;4.60;;
62679;SDS011;68213;40.528;44.712;2023-06-10T03:25:32;9.25;;;4.78;;
62679;SDS011;68213;40.528;44.712;2023-06-10T03:26:33;8.40;;;5.25;;
62679;SDS011;68213;40.528;44.712;2023-06-10T03:27:36;8.05;;;4.35;;
62679;SDS011;68213;40.528;44.712;2023-06-10T03:28:36;9.68;;;4.65;;
62679;SDS011;68213;40.528;44.712;2023-06-10T03:29:37;9.90;;;4.47;;
62679;SDS011;68213;40.528;44.712;2023-06-10T03:30:39;7.10;;;4.75;;
62679;SDS011;68213;40.528;44.712;2023-06-10T03:31:40;9.07;;;4.65;;
62679;SDS011;68213;40.528;44.712;2023-06-10T03:32:41;6.53;;;4.40;;
62679;SDS011;68213;40.528;44.712;2023-06-10T03:33:43;7.25;;;4.45;;
62679;SDS011;68213;40.528;44.712;2023-06-10T03:34:44;8.68;;;4.40;;
62679;SDS011;68213;40.528;44.712;2023-06-10T03:35:47;7.97;;;4.97;;
62679;SDS011;68213;40.528;44.712;2023-06-10T03:36:48;9.35;;;4.68;;
62679;SDS011;68213;40.528;44.712;2023-06-10T03:37:49;9.00;;;5.10;;
62679;SDS011;68213;40.528;44.712;2023-06-10T03:38:49;8.75;;;4.95;;
62679;SDS011;68213;40.528;44.712;2023-06-10T03:39:52;10.05;;;4.65;;
62679;SDS011;68213;40.528;44.712;2023-06-10T03:40:53;13.70;;;5.10;;
62679;SDS011;68213;40.528;44.712;2023-06-10T03:41:53;6.93;;;4.35;;
62679;SDS011;68213;40.528;44.712;2023-06-10T03:42:54;7.53;;;4.53;;
62679;SDS011;68213;40.528;44.712;2023-06-10T03:43:55;7.80;;;4.60;;
62679;SDS011;68213;40.528;44.712;2023-06-10T03:44:56;7.20;;;4.75;;
62679;SDS011;68213;40.528;44.712;2023-06-10T03:45:56;8.25;;;5.00;;
62679;SDS011;68213;40.528;44.712;2023-06-10T03:46:57;10.07;;;5.15;;
62679;SDS011;68213;40.528;44.712;2023-06-10T03:48:01;10.98;;;5.07;;
62679;SDS011;68213;40.528;44.712;2023-06-10T03:49:02;7.93;;;4.88;;
62679;SDS011;68213;40.528;44.712;2023-06-10T03:50:03;10.40;;;5.47;;
62679;SDS011;68213;40.528;44.712;2023-06-10T03:51:05;7.88;;;5.00;;
62679;SDS011;68213;40.528;44.712;2023-06-10T03:52:05;7.68;;;4.95;;
62679;SDS011;68213;40.528;44.712;2023-06-10T03:53:07;5.90;;;4.60;;
62679;SDS011;68213;40.528;44.712;2023-06-10T03:54:07;8.25;;;4.72;;
62679;SDS011;68213;40.528;44.712;2023-06-10T03:55:08;8.55;;;4.68;;
62679;SDS011;68213;40.528;44.712;2023-06-10T03:56:09;9.85;;;4.72;;
62679;SDS011;68213;40.528;44.712;2023-06-10T03:57:09;8.45;;;4.80;;
62679;SDS011;68213;40.528;44.712;2023-06-10T03:58:10;9.90;;;5.00;;
62679;SDS011;68213;40.528;44.712;2023-06-10T03:59:13;9.50;;;4.82;;
62679;SDS011;68213;40.528;44.712;2023-06-10T04:00:14;12.02;;;5.35;;
62679;SDS011;68213;40.528;44.712;2023-06-10T04:01:19;6.85;;;4.95;;
62679;SDS011;68213;40.528;44.712;2023-06-10T04:02:21;7.63;;;4.90;;
62679;SDS011;68213;40.528;44.712;2023-06-10T04:03:22;9.38;;;4.57;;
62679;SDS011;68213;40.528;44.712;2023-06-10T04:04:24;10.75;;;5.28;;
62679;SDS011;68213;40.528;44.712;2023-06-10T04:05:24;8.50;;;5.50;;
62679;SDS011;68213;40.528;44.712;2023-06-10T04:06:25;7.72;;;4.80;;
62679;SDS011;68213;40.528;44.712;2023-06-10T04:07:26;5.95;;;4.60;;
62679;SDS011;68213;40.528;44.712;2023-06-10T04:08:27;10.60;;;5.38;;
62679;SDS011;68213;40.528;44.712;2023-06-10T04:09:29;11.52;;;4.95;;
62679;SDS011;68213;40.528;44.712;2023-06-10T04:10:29;6.90;;;4.45;;
62679;SDS011;68213;40.528;44.712;2023-06-10T04:11:30;9.43;;;4.82;;
62679;SDS011;68213;40.528;44.712;2023-06-10T04:12:32;9.63;;;5.38;;
62679;SDS011;68213;40.528;44.712;2023-06-10T04:13:33;8.98;;;4.80;;
62679;SDS011;68213;40.528;44.712;2023-06-10T04:14:34;8.93;;;4.75;;
62679;SDS011;68213;40.528;44.712;2023-06-10T04:15:37;10.93;;;4.85;;
62679;SDS011;68213;40.528;44.712;2023-06-10T04:16:38;11.77;;;6.00;;
62679;SDS011;68213;40.528;44.712;2023-06-10T04:17:39;9.90;;;5.75;;
62679;SDS011;68213;40.528;44.712;2023-06-10T04:18:40;14.38;;;5.50;;
62679;SDS011;68213;40.528;44.712;2023-06-10T04:19:42;10.63;;;5.40;;
62679;SDS011;68213;40.528;44.712;2023-06-10T04:20:42;8.10;;;5.07;;
62679;SDS011;68213;40.528;44.712;2023-06-10T04:21:44;8.38;;;4.80;;
62679;SDS011;68213;40.528;44.712;2023-06-10T04:22:45;9.63;;;4.72;;
62679;SDS011;68213;40.528;44.712;2023-06-10T04:23:45;10.13;;;5.20;;
62679;SDS011;68213;40.528;44.712;2023-06-10T04:24:46;10.75;;;4.88;;
62679;SDS011;68213;40.528;44.712;2023-06-10T04:25:49;7.05;;;5.13;;
62679;SDS011;68213;40.528;44.712;2023-06-10T04:26:52;9.82;;;5.28;;
62679;SDS011;68213;40.528;44.712;2023-06-10T04:27:53;11.43;;;5.68;;
62679;SDS011;68213;40.528;44.712;2023-06-10T04:28:53;9.70;;;5.40;;
62679;SDS011;68213;40.528;44.712;2023-06-10T04:29:54;8.45;;;5.18;;
62679;SDS011;68213;40.528;44.712;2023-06-10T04:30:55;6.97;;;4.93;;
62679;SDS011;68213;40.528;44.712;2023-06-10T04:31:55;11.70;;;5.68;;
62679;SDS011;68213;40.528;44.712;2023-06-10T04:32:56;13.15;;;5.35;;
62679;SDS011;68213;40.528;44.712;2023-06-10T04:33:57;9.35;;;5.28;;
62679;SDS011;68213;40.528;44.712;2023-06-10T04:34:59;8.98;;;5.53;;
62679;SDS011;68213;40.528;44.712;2023-06-10T04:36:00;14.45;;;5.50;;
62679;SDS011;68213;40.528;44.712;2023-06-10T04:37:02;9.95;;;4.93;;
62679;SDS011;68213;40.528;44.712;2023-06-10T04:38:03;6.32;;;5.32;;
62679;SDS011;68213;40.528;44.712;2023-06-10T04:39:03;11.57;;;5.32;;
62679;SDS011;68213;40.528;44.712;2023-06-10T04:40:06;10.90;;;5.85;;
62679;SDS011;68213;40.528;44.712;2023-06-10T04:41:07;11.82;;;5.53;;
62679;SDS011;68213;40.528;44.712;2023-06-10T04:42:08;7.97;;;5.30;;
62679;SDS011;68213;40.528;44.712;2023-06-10T04:43:08;7.80;;;4.97;;
62679;SDS011;68213;40.528;44.712;2023-06-10T04:44:09;6.15;;;4.93;;
62679;SDS011;68213;40.528;44.712;2023-06-10T04:45:11;7.00;;;4.70;;
62679;SDS011;68213;40.528;44.712;2023-06-10T04:46:11;8.10;;;5.10;;
62679;SDS011;68213;40.528;44.712;2023-06-10T04:47:13;9.05;;;5.00;;
62679;SDS011;68213;40.528;44.712;2023-06-10T04:48:14;7.45;;;5.10;;
62679;SDS011;68213;40.528;44.712;2023-06-10T04:49:15;7.65;;;5.00;;
62679;SDS011;68213;40.528;44.712;2023-06-10T04:50:18;7.70;;;5.07;;
62679;SDS011;68213;40.528;44.712;2023-06-10T04:51:19;13.13;;;5.45;;
62679;SDS011;68213;40.528;44.712;2023-06-10T04:52:19;8.50;;;5.15;;
62679;SDS011;68213;40.528;44.712;2023-06-10T04:53:21;12.90;;;5.47;;
62679;SDS011;68213;40.528;44.712;2023-06-10T04:54:24;8.75;;;5.50;;
62679;SDS011;68213;40.528;44.712;2023-06-10T04:55:25;7.85;;;4.93;;
62679;SDS011;68213;40.528;44.712;2023-06-10T04:56:26;10.23;;;5.10;;
62679;SDS011;68213;40.528;44.712;2023-06-10T04:57:26;7.18;;;4.85;;
62679;SDS011;68213;40.528;44.712;2023-06-10T04:58:27;8.50;;;5.20;;
62679;SDS011;68213;40.528;44.712;2023-06-10T04:59:27;7.95;;;5.22;;
62679;SDS011;68213;40.528;44.712;2023-06-10T05:00:30;10.10;;;4.80;;
62679;SDS011;68213;40.528;44.712;2023-06-10T05:01:31;9.63;;;5.28;;
62679;SDS011;68213;40.528;44.712;2023-06-10T05:02:31;10.00;;;5.22;;
62679;SDS011;68213;40.528;44.712;2023-06-10T05:03:32;7.32;;;5.22;;
62679;SDS011;68213;40.528;44.712;2023-06-10T05:04:33;7.35;;;5.30;;
62679;SDS011;68213;40.528;44.712;2023-06-10T05:05:33;11.43;;;5.70;;
62679;SDS011;68213;40.528;44.712;2023-06-10T05:06:34;10.88;;;5.63;;
62679;SDS011;68213;40.528;44.712;2023-06-10T05:07:36;14.77;;;5.22;;
62679;SDS011;68213;40.528;44.712;2023-06-10T05:08:37;9.60;;;5.25;;
62679;SDS011;68213;40.528;44.712;2023-06-10T05:09:37;9.38;;;5.20;;
62679;SDS011;68213;40.528;44.712;2023-06-10T05:10:38;7.22;;;5.05;;
62679;SDS011;68213;40.528;44.712;2023-06-10T05:11:39;8.75;;;5.32;;
62679;SDS011;68213;40.528;44.712;2023-06-10T05:12:41;6.00;;;5.07;;
62679;SDS011;68213;40.528;44.712;2023-06-10T05:13:42;9.25;;;5.70;;
62679;SDS011;68213;40.528;44.712;2023-06-10T05:14:44;7.60;;;5.55;;
62679;SDS011;68213;40.528;44.712;2023-06-10T05:15:45;9.13;;;5.30;;
62679;SDS011;68213;40.528;44.712;2023-06-10T05:16:47;9.07;;;5.47;;
62679;SDS011;68213;40.528;44.712;2023-06-10T05:17:48;9.15;;;5.30;;
62679;SDS011;68213;40.528;44.712;2023-06-10T05:18:48;8.30;;;5.38;;
62679;SDS011;68213;40.528;44.712;2023-06-10T05:19:51;8.63;;;5.90;;
62679;SDS011;68213;40.528;44.712;2023-06-10T05:20:51;9.68;;;5.47;;
62679;SDS011;68213;40.528;44.712;2023-06-10T05:21:54;10.35;;;5.47;;
62679;SDS011;68213;40.528;44.712;2023-06-10T05:22:54;11.32;;;5.93;;
62679;SDS011;68213;40.528;44.712;2023-06-10T05:23:55;9.27;;;5.45;;
62679;SDS011;68213;40.528;44.712;2023-06-10T05:24:56;8.15;;;5.35;;
62679;SDS011;68213;40.528;44.712;2023-06-10T05:25:59;7.80;;;5.75;;
62679;SDS011;68213;40.528;44.712;2023-06-10T05:27:00;13.00;;;5.80;;
62679;SDS011;68213;40.528;44.712;2023-06-10T05:28:00;9.60;;;5.57;;
62679;SDS011;68213;40.528;44.712;2023-06-10T05:29:01;12.02;;;5.40;;
62679;SDS011;68213;40.528;44.712;2023-06-10T05:30:02;14.55;;;5.18;;
62679;SDS011;68213;40.528;44.712;2023-06-10T05:31:04;9.90;;;5.20;;
62679;SDS011;68213;40.528;44.712;2023-06-10T05:32:05;8.02;;;4.53;;
62679;SDS011;68213;40.528;44.712;2023-06-10T05:33:06;11.07;;;5.00;;
62679;SDS011;68213;40.528;44.712;2023-06-10T05:34:07;7.75;;;4.63;;
62679;SDS011;68213;40.528;44.712;2023-06-10T05:35:09;6.38;;;4.25;;
62679;SDS011;68213;40.528;44.712;2023-06-10T05:36:11;11.95;;;5.28;;
62679;SDS011;68213;40.528;44.712;2023-06-10T05:37:12;9.70;;;5.05;;
62679;SDS011;68213;40.528;44.712;2023-06-10T05:38:13;11.55;;;4.90;;
62679;SDS011;68213;40.528;44.712;2023-06-10T05:39:14;10.32;;;4.70;;
62679;SDS011;68213;40.528;44.712;2023-06-10T05:40:15;8.43;;;4.65;;
62679;SDS011;68213;40.528;44.712;2023-06-10T05:41:16;9.20;;;4.88;;
62679;SDS011;68213;40.528;44.712;2023-06-10T05:42:17;7.80;;;5.07;;
62679;SDS011;68213;40.528;44.712;2023-06-10T05:43:17;12.55;;;5.20;;
62679;SDS011;68213;40.528;44.712;2023-06-10T05:44:18;6.63;;;4.78;;
62679;SDS011;68213;40.528;44.712;2023-06-10T05:45:19;12.15;;;5.32;;
62679;SDS011;68213;40.528;44.712;2023-06-10T05:46:20;9.35;;;4.90;;
62679;SDS011;68213;40.528;44.712;2023-06-10T05:47:21;9.00;;;4.47;;
62679;SDS011;68213;40.528;44.712;2023-06-10T05:48:22;9.50;;;5.30;;
62679;SDS011;68213;40.528;44.712;2023-06-10T05:49:23;7.78;;;5.00;;
62679;SDS011;68213;40.528;44.712;2023-06-10T05:50:24;8.88;;;5.25;;
62679;SDS011;68213;40.528;44.712;2023-06-10T05:51:25;8.25;;;5.60;;
62679;SDS011;68213;40.528;44.712;2023-06-10T05:52:25;6.13;;;5.00;;
62679;SDS011;68213;40.528;44.712;2023-06-10T05:53:26;10.10;;;5.05;;
62679;SDS011;68213;40.528;44.712;2023-06-10T05:54:27;6.38;;;4.95;;
62679;SDS011;68213;40.528;44.712;2023-06-10T05:55:27;8.52;;;5.03;;
62679;SDS011;68213;40.528;44.712;2023-06-10T05:56:28;8.10;;;5.15;;
62679;SDS011;68213;40.528;44.712;2023-06-10T05:57:29;9.32;;;6.03;;
62679;SDS011;68213;40.528;44.712;2023-06-10T05:58:30;8.60;;;4.85;;
62679;SDS011;68213;40.528;44.712;2023-06-10T05:59:31;12.68;;;5.22;;
62679;SDS011;68213;40.528;44.712;2023-06-10T06:00:31;8.57;;;5.20;;
62679;SDS011;68213;40.528;44.712;2023-06-10T06:01:32;8.70;;;5.22;;
62679;SDS011;68213;40.528;44.712;2023-06-10T06:02:33;9.13;;;5.53;;
62679;SDS011;68213;40.528;44.712;2023-06-10T06:03:36;7.22;;;5.07;;
62679;SDS011;68213;40.528;44.712;2023-06-10T06:04:37;9.50;;;5.30;;
62679;SDS011;68213;40.528;44.712;2023-06-10T06:05:38;8.25;;;4.60;;
62679;SDS011;68213;40.528;44.712;2023-06-10T06:06:38;8.98;;;4.32;;
62679;SDS011;68213;40.528;44.712;2023-06-10T06:07:40;7.38;;;4.80;;
62679;SDS011;68213;40.528;44.712;2023-06-10T06:08:41;6.90;;;4.63;;
62679;SDS011;68213;40.528;44.712;2023-06-10T06:09:42;12.88;;;4.70;;
62679;SDS011;68213;40.528;44.712;2023-06-10T06:10:43;9.70;;;4.95;;
62679;SDS011;68213;40.528;44.712;2023-06-10T06:11:43;10.85;;;4.70;;